createdAt,value
2023-09-04T00:04:44.482Z,98775.28
2023-09-04T00:09:48.209Z,98764.47
2023-09-04T00:14:53.104Z,98773.22
2023-09-04T00:19:56.564Z,98761.16
2023-09-04T00:25:00.039Z,98752.88
2023-09-04T00:30:05.360Z,98753.28
2023-09-04T00:35:14.933Z,98743.63
2023-09-04T00:40:18.820Z,98741.38
2023-09-04T00:45:24.269Z,98741.19
2023-09-04T00:50:27.997Z,98732.78
2023-09-04T00:55:31.919Z,98734.41
2023-09-04T01:00:36.840Z,98724.19
2023-09-04T01:05:40.432Z,98728.75
2023-09-04T01:10:53.108Z,98735.41
2023-09-04T01:15:59.422Z,98729.06
2023-09-04T01:21:05.531Z,98723.72
2023-09-04T01:26:15.590Z,98717.53
2023-09-04T01:31:25.381Z,98707.72
2023-09-04T01:36:32.620Z,98699.16
2023-09-04T01:41:39.459Z,98692.22
2023-09-04T01:46:43.194Z,98686.72
2023-09-04T01:51:48.123Z,98673.94
2023-09-04T01:57:16.403Z,98668.69
2023-09-04T02:02:20.067Z,98670.63
2023-09-04T02:07:25.018Z,98662.34
2023-09-04T02:12:28.611Z,98666.72
2023-09-04T02:17:32.422Z,98656.16
2023-09-04T02:22:37.461Z,98664.44
2023-09-04T02:27:40.963Z,98655.44
2023-09-04T02:32:45.406Z,98658.69
2023-09-04T02:37:50.353Z,98666.59
2023-09-04T02:42:53.996Z,98658.53
2023-09-04T02:47:57.648Z,98654.44
2023-09-04T02:53:02.566Z,98662.81
2023-09-04T02:58:08.602Z,98652.44
2023-09-04T03:03:14.178Z,98659.41
2023-09-04T03:08:19.289Z,98659.72
2023-09-04T03:13:22.798Z,98649.75
2023-09-04T03:18:26.820Z,98664.75
2023-09-04T03:23:32.340Z,98690.50
2023-09-04T03:28:36.024Z,98696.91
2023-09-04T03:33:40.689Z,98696.25
2023-09-04T03:38:47.652Z,98706.41
2023-09-04T03:43:52.035Z,98708.00
2023-09-04T03:48:56.125Z,98711.84
2023-09-04T03:54:03.728Z,98722.59
2023-09-04T03:59:07.832Z,98721.47
2023-09-04T04:04:12.794Z,98722.84
2023-09-04T04:09:18.629Z,98723.63
2023-09-04T04:14:22.095Z,98720.13
2023-09-04T04:19:25.574Z,98717.91
2023-09-04T04:24:31.891Z,98725.84
2023-09-04T04:29:35.644Z,98729.16
2023-09-04T04:34:39.292Z,98717.13
2023-09-04T04:39:44.302Z,98716.06
2023-09-04T04:44:47.855Z,98710.97
2023-09-04T04:49:52.837Z,98710.78
2023-09-04T04:54:58.019Z,98716.34
2023-09-04T05:00:01.917Z,98718.56
2023-09-04T05:05:09.514Z,98718.75
2023-09-04T05:10:15.132Z,98719.53
2023-09-04T05:15:19.829Z,98725.03
2023-09-04T05:20:24.796Z,98722.13
2023-09-04T05:25:29.735Z,98725.28
2023-09-04T05:30:35.281Z,98724.59
2023-09-04T05:35:38.819Z,98734.75
2023-09-04T05:40:43.824Z,98731.41
2023-09-04T05:45:47.383Z,98742.50
2023-09-04T05:50:50.901Z,98737.25
2023-09-04T05:56:10.522Z,98736.50
2023-09-04T06:01:17.893Z,98751.53
2023-09-04T06:06:21.460Z,98756.84
2023-09-04T06:11:26.450Z,98743.25
2023-09-04T06:16:30.010Z,98755.81
2023-09-04T06:21:33.801Z,98763.22
2023-09-04T06:26:41.221Z,98755.81
2023-09-04T06:31:44.858Z,98743.59
2023-09-04T06:36:53.925Z,98750.94
2023-09-04T06:41:58.808Z,98750.81
2023-09-04T06:47:07.371Z,98742.97
2023-09-04T06:52:13.769Z,98730.72
2023-09-04T06:57:19.038Z,98736.06
2023-09-04T07:02:22.582Z,98742.03
2023-09-04T07:07:28.156Z,98741.78
2023-09-04T07:12:37.240Z,98732.78
2023-09-04T07:17:40.829Z,98741.97
2023-09-04T07:22:44.426Z,98743.00
2023-09-04T07:34:47.641Z,98748.41
2023-09-04T07:39:57.831Z,98748.69
2023-09-04T07:45:03.715Z,98750.22
2023-09-04T07:50:10.215Z,98757.34
2023-09-04T07:55:13.927Z,98754.22
2023-09-04T08:00:23.135Z,98747.75
2023-09-04T08:05:28.465Z,98756.06
2023-09-04T08:10:32.306Z,98754.28
2023-09-04T08:15:36.059Z,98742.22
2023-09-04T08:20:41.845Z,98748.94
2023-09-04T08:25:45.602Z,98749.25
2023-09-04T08:30:49.273Z,98742.44
2023-09-04T08:35:54.596Z,98736.72
2023-09-04T08:41:01.923Z,98754.00
2023-09-04T08:46:09.457Z,98741.69
2023-09-04T08:51:21.255Z,98746.75
2023-09-04T09:25:08.355Z,98738.94
2023-09-04T09:30:14.591Z,98741.09
2023-09-04T09:35:27.113Z,98742.66
2023-09-04T09:41:28.770Z,98748.91
2023-09-04T10:00:59.491Z,98712.28
2023-09-04T10:06:06.721Z,98718.47
2023-09-04T10:11:13.460Z,98719.75
2023-09-04T10:16:29.931Z,98717.09
2023-09-04T10:21:36.530Z,98722.22
2023-09-04T10:26:56.048Z,98724.53
2023-09-04T10:32:02.816Z,98717.19
2023-09-04T10:37:06.933Z,98713.25
2023-09-04T10:42:11.695Z,98713.81
2023-09-04T11:44:38.926Z,98699.84
2023-09-04T11:49:52.265Z,98697.56
2023-09-04T11:55:03.736Z,98699.16
2023-09-04T12:00:09.883Z,98694.13
2023-09-04T12:05:20.003Z,98682.50
2023-09-04T12:10:27.039Z,98671.59
2023-09-04T12:24:22.696Z,98680.47
2023-09-04T12:30:14.998Z,98676.88
2023-09-04T12:42:26.405Z,98674.75
2023-09-04T13:02:29.773Z,98689.91
2023-09-04T13:07:34.310Z,98688.22
2023-09-04T13:12:38.700Z,98697.03
2023-09-04T13:17:44.736Z,98698.47
2023-09-04T13:22:48.981Z,98693.41
2023-09-04T13:27:52.453Z,98704.63
2023-09-04T13:32:57.373Z,98698.28
2023-09-04T13:38:00.950Z,98695.72
2023-09-04T13:43:04.606Z,98690.81
2023-09-04T13:48:10.094Z,98689.59
2023-09-04T13:53:13.756Z,98685.94
2023-09-04T13:58:17.326Z,98678.59
2023-09-04T14:03:22.248Z,98661.91
2023-09-04T14:08:25.756Z,98669.69
2023-09-04T14:13:29.544Z,98674.59
2023-09-04T14:18:34.753Z,98675.38
2023-09-04T14:23:38.213Z,98665.97
2023-09-04T14:28:41.819Z,98669.84
2023-09-04T14:33:46.796Z,98665.22
2023-09-04T14:38:52.518Z,98664.69
2023-09-04T14:43:56.055Z,98667.53
2023-09-04T14:49:01.545Z,98668.63
2023-09-04T14:54:05.285Z,98669.34
2023-09-04T14:59:08.779Z,98673.13
2023-09-04T15:04:14.312Z,98678.03
2023-09-04T15:09:17.921Z,98674.78
2023-09-04T15:14:21.502Z,98680.59
2023-09-04T15:19:26.466Z,98685.28
2023-09-04T15:24:29.929Z,98680.38
2023-09-04T15:29:33.422Z,98670.53
2023-09-04T15:34:39.272Z,98677.06
2023-09-04T15:39:43.006Z,98697.16
2023-09-04T15:44:46.552Z,98691.53
2023-09-04T15:49:51.479Z,98693.38
2023-09-04T15:54:55.272Z,98702.69
2023-09-04T15:59:58.811Z,98704.69
2023-09-04T16:05:03.795Z,98715.59
2023-09-04T16:10:08.359Z,98728.56
2023-09-04T16:15:12.977Z,98739.91
2023-09-04T16:20:18.238Z,98743.91
2023-09-04T16:25:21.699Z,98742.81
2023-09-04T16:30:25.388Z,98752.84
2023-09-04T16:35:30.397Z,98759.28
2023-09-04T16:40:33.989Z,98772.31
2023-09-04T16:45:38.256Z,98792.84
2023-09-04T16:50:43.213Z,98795.50
2023-09-04T16:55:46.749Z,98796.81
2023-09-04T17:00:50.286Z,98800.41
2023-09-04T17:05:55.404Z,98797.47
2023-09-04T17:11:00.268Z,98806.97
2023-09-04T17:16:04.057Z,98814.00
2023-09-04T17:21:09.692Z,98809.97
2023-09-04T17:26:13.337Z,98823.56
2023-09-04T17:31:17.468Z,98826.91
2023-09-04T17:36:22.953Z,98825.91
2023-09-04T17:41:27.022Z,98823.69
2023-09-04T17:46:30.529Z,98821.28
2023-09-04T17:51:35.701Z,98829.81
2023-09-04T17:56:39.289Z,98821.53
2023-09-04T18:01:42.874Z,98822.00
2023-09-04T18:06:47.931Z,98835.16
2023-09-04T18:11:51.532Z,98825.59
2023-09-04T18:16:56.131Z,98832.28
2023-09-04T18:22:01.510Z,98824.59
2023-09-04T18:27:06.445Z,98815.56
2023-09-04T18:32:09.957Z,98816.53
2023-09-04T18:37:14.987Z,98819.84
2023-09-04T18:42:18.536Z,98811.97
2023-09-04T18:47:22.092Z,98819.34
2023-09-04T18:52:27.044Z,98825.34
2023-09-04T18:57:31.474Z,98819.78
2023-09-04T19:02:35.032Z,98820.84
2023-09-04T19:07:42.229Z,98819.63
2023-09-04T19:12:46.856Z,98830.38
2023-09-04T19:17:50.651Z,98839.59
2023-09-04T19:22:55.793Z,98845.34
2023-09-04T19:27:59.456Z,98853.88
2023-09-04T19:33:04.206Z,98843.47
2023-09-04T19:38:09.173Z,98856.72
2023-09-04T19:43:12.714Z,98851.44
2023-09-04T19:48:16.223Z,98857.19
2023-09-04T19:53:21.167Z,98860.75
2023-09-04T19:58:26.454Z,98853.53
2023-09-04T20:03:30.539Z,98842.44
2023-09-04T20:08:36.773Z,98844.47
2023-09-04T20:13:42.135Z,98845.63
2023-09-04T20:18:45.905Z,98833.72
2023-09-04T20:23:55.623Z,98843.53
2023-09-04T20:28:59.413Z,98848.34
2023-09-04T20:34:02.852Z,98842.97
2023-09-04T20:39:08.241Z,98857.44
2023-09-04T20:44:11.952Z,98851.63
2023-09-04T20:49:15.579Z,98857.53
2023-09-04T20:54:20.660Z,98847.00
2023-09-04T20:59:24.216Z,98855.31
2023-09-04T21:04:27.702Z,98856.72
2023-09-04T21:09:31.418Z,98859.19
2023-09-04T21:14:52.366Z,98864.53
2023-09-04T21:20:13.632Z,98856.53
2023-09-04T21:25:36.084Z,98834.59
2023-09-04T21:30:58.393Z,98806.84
2023-09-04T21:36:19.286Z,98806.28
2023-09-04T21:41:41.754Z,98836.94
2023-09-04T21:47:02.741Z,98860.59
2023-09-04T21:52:24.284Z,98886.06
2023-09-04T21:57:46.666Z,98913.06
2023-09-04T22:03:07.696Z,98899.75
2023-09-04T22:08:28.920Z,98881.75
2023-09-04T22:13:51.518Z,98858.41
2023-09-04T22:19:12.398Z,98869.13
2023-09-04T22:24:33.491Z,98880.78
2023-09-04T22:29:56.847Z,98878.59
2023-09-04T22:35:17.755Z,98870.50
2023-09-04T22:40:38.728Z,98878.47
2023-09-04T22:46:01.222Z,98875.16
2023-09-04T22:51:22.315Z,98873.53
2023-09-04T22:56:43.121Z,98867.28
2023-09-04T23:02:05.708Z,98859.34
2023-09-04T23:07:26.496Z,98870.84
2023-09-04T23:12:47.424Z,98869.59
2023-09-04T23:18:09.746Z,98859.66
2023-09-04T23:23:15.164Z,98859.09
2023-09-04T23:28:23.943Z,98864.75
2023-09-04T23:33:46.627Z,98872.06
2023-09-04T23:39:09.313Z,98881.50
2023-09-04T23:44:26.697Z,98874.94
2023-09-04T23:49:31.980Z,98868.66
2023-09-04T23:54:35.575Z,98862.09
2023-09-04T23:59:39.870Z,98862.19
